Time;durP1;ratioP1;P1;durP2;ratioP2;P2;SDS_P1;SDS_P2;PMS_P1;PMS_P2;Temp;Humidity;BMP_temperature;BMP_pressure;BME280_temperature;BME280_humidity;BME280_pressure;Samples;Min_cycle;Max_cycle;Signal;HPM_P1;HPM_P2
2021/07/03 00:01:25;;;;;;;0.98;0.88;;;;;;;20.06;58.79;99642.66;4479167;31;33266;-83
2021/07/03 00:03:53;;;;;;;1.35;1.25;;;;;;;20.10;58.63;99635.81;4483618;31;34529;-78
2021/07/03 00:06:21;;;;;;;0.75;0.62;;;;;;;20.21;58.45;99640.56;4491587;31;33881;-74
2021/07/03 00:08:48;;;;;;;;;;;;;;;19.94;59.09;99637.03;4486498;31;34854;-82
2021/07/03 00:11:16;;;;;;;;;;;;;;;20.01;58.96;99637.03;4479773;31;34138;-78
2021/07/03 00:13:44;;;;;;;1.02;0.57;;;;;;;20.52;57.71;99627.22;4476330;31;35406;-81
2021/07/03 00:16:12;;;;;;;1.00;0.50;;;;;;;20.33;57.83;99638.88;4491051;31;34362;-77
2021/07/03 00:18:40;;;;;;;0.43;0.30;;;;;;;19.99;59.44;99633.72;4490108;31;33378;-80
2021/07/03 00:21:08;;;;;;;;;;;;;;;20.34;57.82;99627.03;4488495;31;33799;-80
2021/07/03 00:23:35;;;;;;;0.70;0.40;;;;;;;20.44;57.85;99628.28;4479086;31;34878;-77
2021/07/03 00:26:03;;;;;;;0.75;0.68;;;;;;;20.09;58.73;99629.56;4491413;31;33855;-81
2021/07/03 00:28:31;;;;;;;1.40;0.80;;;;;;;20.25;58.57;99626.44;4466987;31;32387;-78
2021/07/03 00:30:59;;;;;;;0.50;0.50;;;;;;;20.24;58.21;99626.63;4483719;31;35289;-78
2021/07/03 00:33:27;;;;;;;;;;;;;;;20.14;58.53;99634.34;4477034;31;34696;-78
2021/07/03 00:35:55;;;;;;;4.28;0.68;;;;;;;19.98;59.22;99632.88;4491562;31;35158;-85
2021/07/03 00:38:22;;;;;;;0.60;0.60;;;;;;;20.19;58.39;99621.06;4482249;31;33318;-75
2021/07/03 00:40:50;;;;;;;0.45;0.45;;;;;;;20.10;58.73;99633.13;4482145;31;34256;-77
2021/07/03 00:43:18;;;;;;;;;;;;;;;19.86;59.38;99626.44;4486264;31;34762;-76
2021/07/03 00:45:47;;;;;;;0.40;0.40;;;;;;;19.93;59.31;99637.22;4476062;31;34608;-79
2021/07/03 00:48:15;;;;;;;0.50;0.35;;;;;;;19.87;59.32;99638.91;4491074;31;33069;-81
2021/07/03 00:50:43;;;;;;;0.80;0.75;;;;;;;19.98;58.96;99630.16;4463731;31;33120;-77
2021/07/03 00:53:15;;;;;;;0.55;0.40;;;;;;;19.89;58.93;99633.25;4490932;31;34886;-80
2021/07/03 00:55:45;;;;;;;0.70;0.70;;;;;;;19.87;59.30;99646.16;4476512;31;33730;-79
2021/07/03 00:58:14;;;;;;;0.40;0.40;;;;;;;19.90;59.29;99643.87;4483884;31;32317;-78
2021/07/03 01:00:42;;;;;;;1.27;0.82;;;;;;;20.14;58.28;99643.28;4480750;31;33705;-78
2021/07/03 01:03:11;;;;;;;1.05;0.52;;;;;;;19.86;59.29;99650.72;4482347;31;34824;-77
2021/07/03 01:05:38;;;;;;;;;;;;;;;20.16;58.46;99641.19;4490433;31;33643;-81
2021/07/03 01:08:06;;;;;;;;;;;;;;;19.89;59.19;99646.75;4479131;31;32890;-77
2021/07/03 01:10:34;;;;;;;0.40;0.40;;;;;;;20.17;58.78;99642.84;4463290;31;34608;-80
2021/07/03 01:13:02;;;;;;;0.35;0.10;;;;;;;19.91;59.12;99648.22;4482103;31;35932;-80
2021/07/03 01:15:30;;;;;;;0.62;0.57;;;;;;;19.73;59.79;99647.19;4482225;31;33756;-77
2021/07/03 01:17:59;;;;;;;1.98;1.15;;;;;;;19.88;59.20;99637.84;4482980;31;33912;-75
2021/07/03 01:20:29;;;;;;;0.20;0.20;;;;;;;19.42;60.77;99653.16;4484080;31;33792;-78
2021/07/03 01:22:57;;;;;;;1.80;0.88;;;;;;;19.70;59.78;99659.22;4476488;31;36158;-79
2021/07/03 01:25:26;;;;;;;0.30;0.30;;;;;;;19.84;59.49;99657.37;4482053;31;33395;-78
2021/07/03 01:28:00;;;;;;;0.90;0.45;;;;;;;20.09;58.83;99658.47;4485988;31;32629;-75
2021/07/03 01:30:29;;;;;;;0.50;0.50;;;;;;;20.16;58.52;99661.97;4476696;31;33850;-75
2021/07/03 01:32:58;;;;;;;0.50;0.50;;;;;;;20.29;58.01;99660.09;4476520;31;35542;-78
2021/07/03 01:35:30;;;;;;;2.60;0.80;;;;;;;20.03;58.80;99660.09;4490078;31;34560;-76
2021/07/03 01:38:00;;;;;;;0.62;0.32;;;;;;;20.02;58.73;99657.59;4490148;31;33628;-75
2021/07/03 01:40:28;;;;;;;2.05;1.05;;;;;;;20.04;59.17;99653.69;4486406;31;33479;-78
2021/07/03 01:42:57;;;;;;;0.30;0.30;;;;;;;19.96;59.12;99655.72;4485079;31;34991;-81
2021/07/03 01:45:25;;;;;;;0.50;0.50;;;;;;;20.14;58.36;99648.69;4480520;31;34747;-79
2021/07/03 01:47:53;;;;;;;0.57;0.57;;;;;;;19.61;60.14;99657.75;4479960;31;33333;-77
2021/07/03 01:50:21;;;;;;;1.23;1.12;;;;;;;19.67;59.81;99658.78;4490005;31;33764;-79
2021/07/03 01:52:51;;;;;;;0.30;0.30;;;;;;;19.71;60.08;99654.66;4479365;31;35716;-79
2021/07/03 01:55:19;;;;;;;0.35;0.35;;;;;;;19.62;60.13;99647.81;4486230;31;34260;-83
2021/07/03 01:57:47;;;;;;;0.82;0.40;;;;;;;19.32;61.26;99646.47;4478603;31;34179;-76
2021/07/03 02:00:18;;;;;;;0.70;0.60;;;;;;;19.12;61.82;99653.62;4474169;31;34076;-78
2021/07/03 02:02:49;;;;;;;0.57;0.40;;;;;;;19.34;61.20;99652.50;4486176;31;34988;-77
2021/07/03 02:05:19;;;;;;;0.50;0.50;;;;;;;19.29;61.38;99647.72;4482483;31;34426;-81
2021/07/03 02:07:46;;;;;;;0.37;0.30;;;;;;;19.08;62.27;99658.59;4489802;31;33327;-78
2021/07/03 02:10:14;;;;;;;1.05;0.85;;;;;;;18.90;62.96;99657.50;4478468;31;34286;-78
2021/07/03 02:12:42;;;;;;;0.32;0.25;;;;;;;19.17;61.92;99665.47;4475892;31;35714;-74
2021/07/03 02:15:14;;;;;;;0.37;0.37;;;;;;;19.40;61.04;99663.31;4476009;31;32776;-78
2021/07/03 02:17:43;;;;;;;0.35;0.30;;;;;;;19.07;62.38;99666.91;4470387;31;32135;-81
2021/07/03 02:20:13;;;;;;;1.08;0.40;;;;;;;19.40;61.35;99662.47;4490081;31;33538;-80
2021/07/03 02:22:41;;;;;;;0.70;0.43;;;;;;;19.03;62.53;99654.84;4485632;31;34913;-80
2021/07/03 02:25:11;;;;;;;0.50;0.50;;;;;;;18.55;64.58;99650.47;4485781;31;34239;-79
2021/07/03 02:27:40;;;;;;;0.40;0.40;;;;;;;18.23;65.78;99657.25;4487454;31;33578;-77
2021/07/03 02:30:11;;;;;;;0.95;0.57;;;;;;;18.07;66.13;99648.66;4487441;31;32507;-83
2021/07/03 02:32:40;;;;;;;0.90;0.80;;;;;;;17.97;67.10;99648.97;4491018;31;35428;-82
2021/07/03 02:35:11;;;;;;;0.80;0.45;;;;;;;18.20;66.33;99654.12;4487865;31;33787;-80
2021/07/03 02:37:39;;;;;;;0.82;0.82;;;;;;;18.11;66.74;99657.97;4491938;31;32933;-75
2021/07/03 02:40:11;;;;;;;1.62;0.93;;;;;;;18.28;66.00;99656.66;4477926;31;32896;-77
2021/07/03 02:42:40;;;;;;;1.23;0.47;;;;;;;17.98;66.96;99653.34;4487161;31;34523;-77
2021/07/03 02:45:12;;;;;;;2.58;0.82;;;;;;;18.37;65.66;99659.06;4477796;31;36456;-80
2021/07/03 02:47:42;;;;;;;1.85;1.23;;;;;;;18.42;65.45;99658.47;4472499;31;32859;-78
2021/07/03 02:50:12;;;;;;;0.93;0.85;;;;;;;18.48;65.07;99661.19;4470821;31;33393;-78
2021/07/03 02:52:41;;;;;;;0.85;0.50;;;;;;;18.49;65.18;99662.00;4485705;31;34717;-76
2021/07/03 02:55:11;;;;;;;1.12;0.77;;;;;;;18.87;63.90;99660.59;4471642;31;34140;-80
2021/07/03 02:57:39;;;;;;;0.95;0.62;;;;;;;18.31;65.87;99667.09;4484402;31;32999;-80
2021/07/03 03:00:11;;;;;;;0.47;0.37;;;;;;;18.50;64.93;99669.91;4487910;31;32809;-75
2021/07/03 03:02:40;;;;;;;1.05;0.70;;;;;;;18.76;64.24;99674.63;4477218;31;34999;-78
2021/07/03 03:05:13;;;;;;;0.70;0.65;;;;;;;18.53;65.08;99674.06;4485449;31;35123;-77
2021/07/03 03:07:42;;;;;;;1.17;1.08;;;;;;;18.66;64.73;99682.22;4492051;31;34358;-79
2021/07/03 03:10:14;;;;;;;0.52;0.50;;;;;;;18.51;65.52;99689.63;4485600;31;33159;-76
2021/07/03 03:12:44;;;;;;;0.77;0.60;;;;;;;18.34;65.98;99683.66;4483418;31;34335;-79
2021/07/03 03:15:14;;;;;;;0.22;0.22;;;;;;;18.86;64.19;99685.88;4470909;31;34029;-79
2021/07/03 03:17:45;;;;;;;0.47;0.40;;;;;;;19.01;63.65;99692.81;4481167;31;33866;-79
2021/07/03 03:20:14;;;;;;;2.42;0.93;;;;;;;19.32;62.51;99695.03;4491871;31;33182;-78
2021/07/03 03:22:42;;;;;;;0.60;0.28;;;;;;;19.10;63.20;99693.47;4477435;31;36113;-79
2021/07/03 03:25:12;;;;;;;0.45;0.43;;;;;;;19.45;62.07;99690.50;4480971;31;34196;-81
2021/07/03 03:27:41;;;;;;;2.55;0.75;;;;;;;19.40;62.18;99690.28;4480064;31;34205;-79
2021/07/03 03:30:10;;;;;;;1.05;0.73;;;;;;;18.70;64.80;99697.00;4476504;31;33609;-77
2021/07/03 03:32:38;;;;;;;1.05;0.55;;;;;;;19.18;63.14;99694.13;4481950;31;35655;-78
2021/07/03 03:35:08;;;;;;;1.12;0.90;;;;;;;18.91;63.79;99689.66;4485919;31;34789;-80
2021/07/03 03:37:35;;;;;;;0.32;0.30;;;;;;;18.96;63.77;99691.72;4471480;31;32842;-78
2021/07/03 03:40:05;;;;;;;1.23;0.60;;;;;;;18.84;64.48;99688.78;4479325;31;32208;-78
2021/07/03 03:42:34;;;;;;;0.85;0.85;;;;;;;19.28;62.86;99681.09;4478833;31;34698;-77
2021/07/03 03:45:04;;;;;;;0.77;0.50;;;;;;;19.16;63.07;99685.41;4491467;31;34681;-80
2021/07/03 03:47:33;;;;;;;0.93;0.73;;;;;;;19.51;62.32;99683.47;4483194;31;32834;-81
2021/07/03 03:50:03;;;;;;;0.47;0.40;;;;;;;19.32;62.94;99679.69;4491782;31;33559;-78
2021/07/03 03:52:31;;;;;;;0.57;0.50;;;;;;;19.30;63.36;99689.00;4476679;31;33486;-79
2021/07/03 03:55:00;;;;;;;0.45;0.45;;;;;;;19.68;62.07;99687.44;4491538;31;34339;-81
2021/07/03 03:57:30;;;;;;;0.88;0.88;;;;;;;19.42;63.22;99695.47;4470999;31;34522;-82
2021/07/03 03:59:59;;;;;;;0.28;0.28;;;;;;;19.54;62.99;99691.97;4476493;31;32280;-78
2021/07/03 04:02:28;;;;;;;0.40;0.40;;;;;;;18.80;65.21;99702.84;4477182;31;35017;-78
2021/07/03 04:04:57;;;;;;;3.15;0.88;;;;;;;19.58;63.10;99687.84;4482921;31;34213;-78
2021/07/03 04:07:24;;;;;;;2.92;0.70;;;;;;;19.78;62.32;99691.44;4491053;31;33967;-79
2021/07/03 04:09:53;;;;;;;0.65;0.60;;;;;;;19.65;62.82;99687.87;4491526;31;33368;-82
2021/07/03 04:12:21;;;;;;;1.40;0.80;;;;;;;19.80;62.17;99685.84;4468150;31;33836;-78
2021/07/03 04:14:49;;;;;;;1.17;0.88;;;;;;;20.23;60.81;99684.41;4483959;31;35566;-75
2021/07/03 04:17:17;;;;;;;1.45;1.33;;;;;;;19.18;64.04;99682.50;4467884;31;32983;-79
2021/07/03 04:19:45;;;;;;;;;;;;;;;19.34;63.70;99691.09;4488379;31;33773;-78
2021/07/03 04:22:15;;;;;;;0.82;0.82;;;;;;;19.70;62.78;99694.31;4484351;31;35554;-76
2021/07/03 04:24:43;;;;;;;0.70;0.70;;;;;;;19.88;61.86;99686.44;4475806;31;34331;-83
2021/07/03 04:27:12;;;;;;;2.53;0.68;;;;;;;19.60;63.14;99687.63;4469784;31;33309;-78
2021/07/03 04:29:40;;;;;;;1.12;0.80;;;;;;;20.04;61.85;99685.25;4482902;31;33767;-75
2021/07/03 04:32:08;;;;;;;1.58;1.48;;;;;;;20.04;62.12;99682.53;4483554;31;37079;-81
2021/07/03 04:34:36;;;;;;;1.02;0.62;;;;;;;19.71;63.10;99687.87;4477004;31;34222;-76
2021/07/03 04:37:04;;;;;;;1.20;1.02;;;;;;;19.97;62.71;99682.50;4475954;31;33010;-80
2021/07/03 04:39:31;;;;;;;;;;;;;;;19.83;62.71;99680.81;4481340;31;34296;-79
2021/07/03 04:41:59;;;;;;;;;;;;;;;20.28;61.58;99676.53;4489382;31;35280;-79
2021/07/03 04:44:27;;;;;;;1.23;1.12;;;;;;;20.20;61.68;99672.16;4489364;31;34166;-80
2021/07/03 04:46:55;;;;;;;2.67;1.62;;;;;;;20.22;61.91;99671.94;4483659;31;32922;-78
2021/07/03 04:49:23;;;;;;;1.55;1.27;;;;;;;20.30;61.52;99669.84;4488722;31;34696;-78
2021/07/03 04:51:51;;;;;;;0.70;0.70;;;;;;;20.36;61.53;99673.63;4483364;31;34677;-77
2021/07/03 04:54:19;;;;;;;1.45;1.05;;;;;;;20.11;62.36;99676.09;4471599;31;34592;-78
2021/07/03 04:56:47;;;;;;;3.75;1.60;;;;;;;20.28;62.00;99679.22;4490586;31;33782;-78
2021/07/03 04:59:15;;;;;;;1.50;1.27;;;;;;;20.08;62.72;99678.41;4471298;31;33912;-78
2021/07/03 05:01:43;;;;;;;2.25;2.05;;;;;;;19.98;62.79;99678.78;4474245;31;34802;-82
2021/07/03 05:04:11;;;;;;;2.83;1.35;;;;;;;19.84;63.47;99677.12;4482651;31;34016;-78
2021/07/03 05:06:39;;;;;;;2.22;1.05;;;;;;;19.83;63.62;99683.53;4471314;31;33059;-83
2021/07/03 05:09:07;;;;;;;1.65;1.55;;;;;;;19.97;63.21;99671.72;4489596;31;33455;-78
2021/07/03 05:11:35;;;;;;;2.97;1.33;;;;;;;20.05;63.12;99668.00;4483695;31;34878;-83
2021/07/03 05:14:03;;;;;;;2.80;1.65;;;;;;;20.12;63.13;99663.44;4467726;31;33607;-77
2021/07/03 05:16:30;;;;;;;1.55;1.25;;;;;;;20.27;62.47;99656.78;4468603;31;33294;-78
2021/07/03 05:19:03;;;;;;;3.42;1.67;;;;;;;20.04;62.92;99653.69;4476874;31;33268;-82
2021/07/03 05:21:30;;;;;;;1.45;1.27;;;;;;;20.15;63.19;99647.66;4487652;31;35544;-78
2021/07/03 05:23:58;;;;;;;2.05;1.42;;;;;;;20.52;62.13;99647.78;4476647;31;34721;-82
2021/07/03 05:26:26;;;;;;;1.75;1.23;;;;;;;20.79;61.62;99651.28;4490156;31;33456;-78
2021/07/03 05:28:54;;;;;;;2.65;1.23;;;;;;;20.29;62.46;99653.88;4476333;31;34183;-79
2021/07/03 05:31:22;;;;;;;2.28;1.77;;;;;;;20.53;62.21;99657.56;4481019;31;35445;-75
2021/07/03 05:33:50;;;;;;;3.28;1.40;;;;;;;20.51;61.54;99657.97;4486810;31;33679;-75
2021/07/03 05:36:17;;;;;;;;;;;;;;;20.55;61.28;99651.13;4483536;31;33581;-80
2021/07/03 05:38:47;;;;;;;;;;;;;;;20.89;60.59;99660.63;4489197;31;34134;-81
2021/07/03 05:41:16;;;;;;;2.33;1.00;;;;;;;20.66;60.98;99656.69;4488653;31;35263;-81
2021/07/03 05:43:44;;;;;;;2.72;1.30;;;;;;;20.90;60.54;99654.16;4476432;31;34546;-79
2021/07/03 05:46:12;;;;;;;2.47;1.83;;;;;;;20.55;61.66;99668.16;4461769;31;32979;-77
2021/07/03 05:48:42;;;;;;;3.15;2.40;;;;;;;20.57;61.30;99662.56;4466486;31;33915;-77
2021/07/03 05:51:10;;;;;;;2.03;1.73;;;;;;;20.51;61.60;99657.97;4484249;31;35185;-78
2021/07/03 05:53:38;;;;;;;2.08;1.52;;;;;;;20.73;61.08;99655.66;4475623;31;34077;-80
2021/07/03 05:56:06;;;;;;;3.70;1.73;;;;;;;20.91;60.43;99655.84;4489936;31;32599;-78
2021/07/03 05:58:34;;;;;;;1.75;1.23;;;;;;;20.67;61.53;99658.34;4482206;31;33490;-80
2021/07/03 06:01:02;;;;;;;4.30;2.05;;;;;;;20.94;60.59;99655.41;4484441;31;35386;-78
2021/07/03 06:03:30;;;;;;;2.50;1.92;;;;;;;21.23;59.15;99649.47;4477548;31;33800;-75
2021/07/03 06:05:58;;;;;;;2.08;1.85;;;;;;;21.43;58.96;99663.72;4485353;31;33177;-80
2021/07/03 06:08:25;;;;;;;;;;;;;;;21.05;60.11;99670.97;4486081;31;33810;-84
2021/07/03 06:10:53;;;;;;;4.32;1.48;;;;;;;21.34;59.46;99664.19;4492367;31;36175;-80
2021/07/03 06:13:21;;;;;;;;;;;;;;;21.55;59.15;99664.66;4486443;31;34309;-77
2021/07/03 06:15:48;;;;;;;1.25;1.05;;;;;;;21.69;58.16;99670.88;4483343;31;33109;-77
2021/07/03 06:18:18;;;;;;;2.85;1.95;;;;;;;22.04;57.54;99661.25;4483925;31;33379;-74
2021/07/03 06:20:46;;;;;;;1.52;1.42;;;;;;;22.12;57.26;99659.09;4489740;31;35536;-81
2021/07/03 06:23:14;;;;;;;1.73;1.62;;;;;;;21.78;57.54;99659.56;4485421;31;34565;-79
2021/07/03 06:25:42;;;;;;;1.25;1.00;;;;;;;22.13;57.07;99658.06;4469167;31;33235;-80
2021/07/03 06:28:09;;;;;;;2.12;1.77;;;;;;;22.36;56.52;99654.72;4477620;31;33828;-82
2021/07/03 06:30:37;;;;;;;1.67;1.05;;;;;;;22.36;56.78;99654.72;4490972;31;35097;-82
2021/07/03 06:33:06;;;;;;;1.83;1.70;;;;;;;22.69;56.11;99650.66;4491863;31;34477;-78
2021/07/03 06:35:33;;;;;;;;;;;;;;;22.86;55.74;99651.69;4491819;31;34129;-80
2021/07/03 06:38:04;;;;;;;3.92;1.95;;;;;;;22.67;55.47;99651.94;4485473;31;34381;-78
2021/07/03 06:40:32;;;;;;;1.50;0.90;;;;;;;22.99;54.10;99629.84;4490701;31;35662;-83
2021/07/03 06:43:00;;;;;;;1.40;1.23;;;;;;;23.05;54.28;99645.25;4491266;31;35042;-77
2021/07/03 06:45:27;;;;;;;1.83;1.67;;;;;;;22.89;54.57;99645.84;4476626;31;33280;-82
2021/07/03 06:47:55;;;;;;;1.65;0.95;;;;;;;23.06;53.97;99646.03;4492053;31;34728;-78
2021/07/03 06:50:23;;;;;;;1.73;1.08;;;;;;;23.22;53.66;99642.75;4480518;31;35099;-77
2021/07/03 06:52:51;;;;;;;1.90;1.42;;;;;;;23.29;52.71;99649.75;4484121;31;34961;-82
2021/07/03 06:55:19;;;;;;;1.62;1.02;;;;;;;23.62;52.19;99644.69;4470333;31;31918;-83
2021/07/03 06:57:47;;;;;;;2.08;1.48;;;;;;;23.33;52.52;99637.38;4491807;31;34652;-78
2021/07/03 07:00:15;;;;;;;2.08;1.87;;;;;;;23.45;52.09;99648.28;4485206;31;34885;-78
2021/07/03 07:02:43;;;;;;;2.37;2.03;;;;;;;23.43;52.23;99651.25;4483830;31;35722;-79
2021/07/03 07:05:12;;;;;;;4.15;2.00;;;;;;;23.81;50.82;99655.25;4469140;31;32774;-79
2021/07/03 07:07:40;;;;;;;;;;;;;;;23.60;51.63;99656.84;4491916;31;33420;-79
2021/07/03 07:10:08;;;;;;;1.85;1.10;;;;;;;23.41;52.61;99652.53;4477691;31;35253;-82
2021/07/03 07:12:36;;;;;;;1.67;1.35;;;;;;;23.71;52.27;99654.16;4480635;31;34025;-83
2021/07/03 07:15:05;;;;;;;1.30;1.20;;;;;;;23.80;52.61;99653.59;4468272;31;32656;-80
2021/07/03 07:17:33;;;;;;;1.75;1.48;;;;;;;23.91;52.67;99655.53;4474887;31;33710;-84
2021/07/03 07:20:02;;;;;;;2.53;1.80;;;;;;;23.57;52.74;99660.84;4460703;31;34675;-79
2021/07/03 07:22:30;;;;;;;2.03;1.92;;;;;;;23.72;52.56;99666.69;4484974;31;34678;-81
2021/07/03 07:24:58;;;;;;;2.47;1.95;;;;;;;23.85;51.30;99654.84;4470618;31;34200;-86
2021/07/03 07:27:26;;;;;;;4.18;3.05;;;;;;;23.83;52.31;99663.19;4485985;31;33506;-75
2021/07/03 07:29:53;;;;;;;2.17;1.77;;;;;;;24.00;51.84;99667.72;4468441;31;34669;-82
2021/07/03 07:32:22;;;;;;;1.60;1.02;;;;;;;23.83;52.09;99669.41;4487627;31;33690;-81
2021/07/03 07:34:50;;;;;;;;;;;;;;;23.92;51.64;99665.34;4492832;31;33244;-79
2021/07/03 07:37:17;;;;;;;3.08;2.87;;;;;;;23.50;52.72;99670.97;4490351;31;34926;-75
2021/07/03 07:39:45;;;;;;;1.58;1.27;;;;;;;23.80;51.59;99674.53;4489699;31;36318;-79
2021/07/03 07:42:14;;;;;;;2.17;1.65;;;;;;;23.68;51.85;99684.50;4483748;31;33512;-86
2021/07/03 07:44:42;;;;;;;2.42;1.50;;;;;;;23.73;51.48;99686.53;4483166;31;33265;-81
2021/07/03 07:47:10;;;;;;;1.92;1.73;;;;;;;23.97;51.31;99680.94;4486615;31;33875;-79
2021/07/03 07:49:37;;;;;;;2.28;1.80;;;;;;;23.79;50.90;99692.69;4485912;31;36289;-79
2021/07/03 07:52:05;;;;;;;1.77;1.40;;;;;;;24.03;50.35;99694.47;4469693;31;34352;-79
2021/07/03 07:54:33;;;;;;;2.97;1.60;;;;;;;23.96;50.44;99698.31;4491353;31;33237;-77
2021/07/03 07:57:01;;;;;;;;;;;;;;;24.14;50.76;99690.09;4487356;31;34884;-85
2021/07/03 07:59:29;;;;;;;2.55;1.90;;;;;;;24.23;50.83;99694.97;4474400;31;35170;-79
2021/07/03 08:01:57;;;;;;;1.62;1.27;;;;;;;24.14;51.16;99682.78;4491280;31;35396;-80
2021/07/03 08:04:25;;;;;;;1.83;1.42;;;;;;;24.40;50.60;99692.38;4480651;31;34216;-77
2021/07/03 08:06:53;;;;;;;2.50;1.77;;;;;;;24.59;49.23;99688.50;4481968;31;35210;-81
2021/07/03 08:09:21;;;;;;;4.43;2.70;;;;;;;24.72;48.46;99686.38;4487047;31;34435;-81
2021/07/03 08:11:49;;;;;;;0.70;0.70;;;;;;;24.96;47.82;99679.03;4490291;31;33573;-82
2021/07/03 08:14:18;;;;;;;3.08;2.22;;;;;;;24.87;48.36;99678.56;4487571;31;33593;-83
2021/07/03 08:16:45;;;;;;;1.58;1.08;;;;;;;24.68;48.64;99679.78;4485885;31;32529;-81
2021/07/03 08:19:13;;;;;;;3.12;1.60;;;;;;;24.90;48.92;99679.97;4481038;31;34632;-78
2021/07/03 08:21:41;;;;;;;;;;;;;;;25.07;48.51;99681.72;4483999;31;34480;-82
2021/07/03 08:24:09;;;;;;;2.08;0.85;;;;;;;24.73;48.39;99682.59;4490140;31;32717;-77
2021/07/03 08:26:37;;;;;;;1.35;1.25;;;;;;;24.95;47.72;99683.66;4482204;31;33595;-84
2021/07/03 08:29:05;;;;;;;2.85;1.95;;;;;;;25.26;47.24;99685.97;4490764;31;35873;-74
2021/07/03 08:31:33;;;;;;;1.98;1.77;;;;;;;25.34;47.35;99688.31;4480923;31;33665;-82
2021/07/03 08:34:02;;;;;;;1.52;1.35;;;;;;;25.73;46.47;99675.72;4482750;31;32693;-80
2021/07/03 08:36:30;;;;;;;2.10;1.85;;;;;;;25.93;46.52;99685.12;4487069;31;32768;-82
2021/07/03 08:38:58;;;;;;;1.67;1.48;;;;;;;25.83;47.13;99684.06;4477519;31;35310;-80
2021/07/03 08:41:29;;;;;;;3.08;1.73;;;;;;;25.89;45.33;99677.69;4489397;31;34667;-80
2021/07/03 08:43:56;;;;;;;2.33;1.60;;;;;;;25.78;44.94;99673.91;4480157;31;33094;-79
2021/07/03 08:46:24;;;;;;;3.30;1.85;;;;;;;25.68;44.07;99679.19;4484300;31;33733;-84
2021/07/03 08:48:54;;;;;;;2.65;1.58;;;;;;;25.92;43.79;99688.09;4469785;31;34896;-81
2021/07/03 08:51:24;;;;;;;1.67;1.55;;;;;;;26.22;43.88;99681.28;4490938;31;33862;-79
2021/07/03 08:53:52;;;;;;;2.40;1.30;;;;;;;26.24;44.47;99690.03;4484925;31;34008;-81
2021/07/03 08:56:20;;;;;;;1.65;1.37;;;;;;;26.39;44.08;99687.56;4491824;31;35223;-79
2021/07/03 08:58:48;;;;;;;1.33;1.23;;;;;;;26.61;44.54;99684.94;4491067;31;36035;-83
2021/07/03 09:01:17;;;;;;;1.52;1.27;;;;;;;26.72;43.59;99684.00;4482419;31;34633;-80
2021/07/03 09:03:55;;;;;;;1.92;1.58;;;;;;;26.68;42.38;99694.59;4486173;31;33260;-81
2021/07/03 09:06:32;;;;;;;1.83;1.65;;;;;;;26.37;43.04;99689.72;4485088;31;34577;-82
2021/07/03 09:08:59;;;;;;;2.00;1.45;;;;;;;26.69;43.66;99687.25;4491184;31;34648;-81
2021/07/03 09:11:28;;;;;;;1.10;0.82;;;;;;;26.55;43.10;99696.84;4482524;31;35003;-82
2021/07/03 09:13:59;;;;;;;;;;;;;;;26.75;42.84;99683.50;4483256;31;32768;-83
2021/07/03 09:16:31;;;;;;;1.92;1.33;;;;;;;27.13;41.01;99696.09;4480822;31;34319;-81
2021/07/03 09:19:01;;;;;;;1.15;0.90;;;;;;;27.33;40.87;99684.59;4490648;31;36605;-78
2021/07/03 09:21:30;;;;;;;3.53;2.35;;;;;;;26.86;42.82;99685.28;4482743;31;34683;-79
2021/07/03 09:23:59;;;;;;;1.60;1.50;;;;;;;26.33;42.97;99688.53;4479708;31;34086;-79
2021/07/03 09:26:27;;;;;;;1.37;1.12;;;;;;;26.61;43.22;99677.56;4482163;31;33708;-77
2021/07/03 09:28:56;;;;;;;1.90;1.35;;;;;;;26.69;42.80;99681.78;4485698;31;36525;-80
2021/07/03 09:31:24;;;;;;;;;;;;;;;27.25;42.14;99680.44;4482634;31;34694;-80
2021/07/03 09:33:53;;;;;;;1.17;1.12;;;;;;;27.02;41.24;99669.69;4482699;31;33270;-83
2021/07/03 09:36:29;;;;;;;1.73;1.62;;;;;;;27.16;41.33;99678.38;4485875;31;33827;-84
2021/07/03 09:38:58;;;;;;;1.48;1.37;;;;;;;27.38;39.81;99662.81;4466009;31;36004;-80
2021/07/03 09:41:36;;;;;;;2.00;1.55;;;;;;;27.63;40.73;99663.94;4490403;31;34282;-82
2021/07/03 09:44:08;;;;;;;1.20;1.10;;;;;;;27.64;40.52;99665.56;4455177;31;471620;-82
2021/07/03 09:46:39;;;;;;;2.33;2.10;;;;;;;27.77;39.69;99669.84;4479234;31;33663;-79
2021/07/03 09:49:10;;;;;;;2.47;1.37;;;;;;;27.85;39.60;99667.47;4490438;31;37104;-80
2021/07/03 09:51:43;;;;;;;1.65;1.42;;;;;;;28.56;38.64;99657.97;4490489;31;34685;-83
2021/07/03 09:54:15;;;;;;;1.45;1.35;;;;;;;28.46;38.56;99652.41;4488092;31;33552;-81
2021/07/03 09:56:43;;;;;;;1.58;1.48;;;;;;;28.15;38.78;99662.25;4489628;31;33288;-78
2021/07/03 09:59:13;;;;;;;2.30;1.70;;;;;;;28.34;38.97;99643.56;4489537;31;34642;-82
2021/07/03 10:01:43;;;;;;;5.70;2.22;;;;;;;28.40;38.91;99642.53;4475795;31;33305;-77
2021/07/03 10:04:12;;;;;;;2.12;1.60;;;;;;;28.56;38.83;99636.06;4475339;31;33309;-80
2021/07/03 10:06:39;;;;;;;6.22;2.03;;;;;;;28.90;37.78;99635.44;4489705;31;33425;-85
2021/07/03 10:09:10;;;;;;;1.58;1.48;;;;;;;29.12;38.32;99635.31;4486198;31;35061;-81
2021/07/03 10:11:44;;;;;;;1.50;1.40;;;;;;;29.20;37.25;99624.66;4475494;31;34325;-82
2021/07/03 10:14:12;;;;;;;1.45;1.00;;;;;;;29.18;36.72;99626.03;4487186;31;33019;-81
2021/07/03 10:16:42;;;;;;;1.20;1.10;;;;;;;28.51;36.51;99625.91;4482327;31;33568;-91
2021/07/03 10:19:13;;;;;;;1.55;1.45;;;;;;;28.83;37.36;99621.19;4490179;31;34531;-85
2021/07/03 10:21:43;;;;;;;3.08;1.58;;;;;;;28.81;37.40;99619.78;4472711;31;35467;-81
2021/07/03 10:24:22;;;;;;;2.35;1.60;;;;;;;28.84;36.17;99619.25;4489513;31;32437;-80
2021/07/03 10:26:51;;;;;;;1.70;1.55;;;;;;;28.59;36.40;99630.88;4474862;31;34609;-85
2021/07/03 10:29:24;;;;;;;1.35;1.12;;;;;;;28.65;36.57;99629.00;4475454;31;34668;-85
2021/07/03 10:31:53;;;;;;;6.60;2.03;;;;;;;29.21;35.38;99626.31;4489215;31;35125;-91
2021/07/03 10:34:35;;;;;;;1.30;1.02;;;;;;;29.02;36.19;99624.31;4486296;31;32705;-81
2021/07/03 10:37:11;;;;;;;1.23;1.10;;;;;;;29.61;35.44;99625.66;4483565;31;34171;-83
2021/07/03 10:39:39;;;;;;;1.55;1.45;;;;;;;29.66;34.70;99631.12;4477450;31;34023;-80
2021/07/03 10:42:06;;;;;;;2.05;1.65;;;;;;;29.23;34.21;99623.28;4489688;31;34389;-83
2021/07/03 10:44:39;;;;;;;1.37;1.12;;;;;;;29.20;35.25;99621.09;4484188;31;32675;-81
2021/07/03 10:47:09;;;;;;;1.65;1.35;;;;;;;29.49;35.80;99616.78;4468673;31;32592;-83
2021/07/03 10:49:39;;;;;;;2.03;1.90;;;;;;;29.24;35.06;99627.69;4483803;31;35954;-86
2021/07/03 10:52:11;;;;;;;1.27;1.15;;;;;;;29.46;34.46;99623.66;4480033;31;34967;-79
2021/07/03 10:54:39;;;;;;;0.82;0.80;;;;;;;29.20;35.13;99623.81;4485899;31;33721;-84
2021/07/03 10:57:08;;;;;;;2.22;1.17;;;;;;;28.90;36.61;99629.16;4472327;31;33021;-81
2021/07/03 10:59:38;;;;;;;1.08;1.05;;;;;;;28.99;36.96;99625.66;4476686;31;34635;-84
2021/07/03 11:02:14;;;;;;;1.70;1.60;;;;;;;29.13;35.77;99629.56;4476718;31;33692;-85
2021/07/03 11:04:44;;;;;;;1.90;1.73;;;;;;;29.06;36.17;99625.44;4466855;31;32662;-76
2021/07/03 11:07:14;;;;;;;1.40;1.30;;;;;;;27.84;37.04;99629.44;4488125;31;34005;-76
2021/07/03 11:09:42;;;;;;;1.90;1.80;;;;;;;28.07;37.43;99629.09;4480682;31;35691;-77
2021/07/03 11:12:15;;;;;;;5.25;1.87;;;;;;;28.24;37.62;99625.13;4476840;31;35570;-85
2021/07/03 11:14:57;;;;;;;3.17;1.48;;;;;;;28.61;36.26;99616.94;4482836;31;33021;-79
2021/07/03 11:17:26;;;;;;;1.73;1.60;;;;;;;28.53;37.17;99610.06;4486305;31;33482;-83
2021/07/03 11:19:55;;;;;;;1.75;1.65;;;;;;;28.25;36.59;99604.91;4477183;31;35635;-79
2021/07/03 11:22:24;;;;;;;1.55;1.37;;;;;;;28.50;36.50;99604.28;4491645;31;35077;-80
2021/07/03 11:24:55;;;;;;;1.85;1.75;;;;;;;28.39;35.80;99597.91;4483400;31;33238;-83
2021/07/03 11:27:33;;;;;;;2.53;1.58;;;;;;;28.26;36.13;99598.34;4477127;31;33320;-81
2021/07/03 11:30:17;;;;;;;1.80;1.70;;;;;;;28.91;35.63;99592.44;4480852;31;35282;-81
2021/07/03 11:32:48;;;;;;;1.67;1.37;;;;;;;29.10;36.05;99590.91;4486992;31;35808;-86
2021/07/03 11:35:18;;;;;;;1.50;1.40;;;;;;;29.17;36.08;99586.00;4491373;31;34248;-79
2021/07/03 11:37:47;;;;;;;1.60;1.48;;;;;;;29.39;35.40;99587.44;4486223;31;34053;-80
2021/07/03 11:40:20;;;;;;;3.17;1.60;;;;;;;30.23;32.59;99583.19;4472726;31;34871;-83
2021/07/03 11:42:50;;;;;;;3.95;2.00;;;;;;;31.23;32.18;99574.69;4468918;31;33443;-80
2021/07/03 11:45:22;;;;;;;1.67;1.55;;;;;;;31.43;30.38;99572.59;4490918;31;33355;-77
2021/07/03 11:48:01;;;;;;;3.00;1.30;;;;;;;31.39;31.50;99579.78;4486201;31;35625;-80